Time;durP1;ratioP1;P1;durP2;ratioP2;P2;SDS_P1;SDS_P2;PMS_P1;PMS_P2;Temp;Humidity;BMP_temperature;BMP_pressure;BME280_temperature;BME280_humidity;BME280_pressure;Samples;Min_cycle;Max_cycle;Signal;HPM_P1;HPM_P2
2022/09/11 00:01:29;;;;;;;2.27;2.03;;;;;;;;;;4984968;28;20288;-56
2022/09/11 00:03:56;;;;;;;3.47;2.47;;;;;;;;;;4984554;28;20295;-56
2022/09/11 00:06:23;;;;;;;2.87;2.43;;;;;;;;;;4979112;28;20311;-54
2022/09/11 00:09:01;;;;;;;2.80;2.47;;;;;;;;;;4983804;28;20205;-56
2022/09/11 00:11:33;;;;;;;3.37;2.40;;;;;;;;;;4988091;28;20322;-56
2022/09/11 00:13:59;;;;;;;3.73;2.60;;;;;;;;;;4984900;28;20287;-54
2022/09/11 00:16:34;;;;;;;3.20;2.60;;;;;;;;;;4980630;28;20220;-54
2022/09/11 00:19:06;;;;;;;4.63;3.00;;;;;;;;;;4988036;28;20738;-55
2022/09/11 00:21:33;;;;;;;3.93;3.00;;;;;;;;;;4985833;28;20293;-57
2022/09/11 00:24:00;;;;;;;2.93;2.40;;;;;;;;;;4989396;28;20287;-56
2022/09/11 00:26:26;;;;;;;3.67;2.70;;;;;;;;;;4991196;28;20256;-55
2022/09/11 00:28:54;;;;;;;3.90;2.90;;;;;;;;;;4980979;28;20283;-56
2022/09/11 00:31:23;;;;;;;4.93;3.47;;;;;;;;;;4986522;28;20785;-55
2022/09/11 00:33:50;;;;;;;4.17;3.13;;;;;;;;;;4986037;28;20253;-58
2022/09/11 00:36:20;;;;;;;5.20;3.43;;;;;;;;;;4986737;28;20363;-54
2022/09/11 00:38:47;;;;;;;2.20;2.00;;;;;;;;;;4989995;28;20280;-53
2022/09/11 00:41:26;;;;;;;4.07;3.00;;;;;;;;;;4982759;28;20543;-55
2022/09/11 00:43:52;;;;;;;5.13;4.33;;;;;;;;;;4982587;28;20211;-53
2022/09/11 00:46:19;;;;;;;4.40;3.90;;;;;;;;;;4984523;28;20252;-54
2022/09/11 00:48:48;;;;;;;6.13;4.30;;;;;;;;;;4967200;28;20207;-56
2022/09/11 00:51:23;;;;;;;5.33;4.83;;;;;;;;;;4986509;28;20312;-56
2022/09/11 00:53:50;;;;;;;4.00;3.60;;;;;;;;;;4991265;28;20283;-55
2022/09/11 00:56:17;;;;;;;4.47;3.80;;;;;;;;;;4987768;28;20256;-55
2022/09/11 00:58:46;;;;;;;4.07;2.80;;;;;;;;;;4988679;28;20292;-54
2022/09/11 01:01:13;;;;;;;3.65;3.13;;;;;;;;;;4979076;28;20207;-54
2022/09/11 01:03:41;;;;;;;3.53;3.23;;;;;;;;;;4978764;28;20193;-54
2022/09/11 01:06:08;;;;;;;4.90;3.90;;;;;;;;;;4985973;28;20599;-56
2022/09/11 01:08:35;;;;;;;3.63;3.00;;;;;;;;;;4965905;28;20284;-51
2022/09/11 01:11:20;;;;;;;6.60;4.77;;;;;;;;;;4988543;28;20213;-54
2022/09/11 01:14:11;;;;;;;5.00;3.00;;;;;;;;;;4968129;28;20201;-52
2022/09/11 01:16:52;;;;;;;4.10;3.23;;;;;;;;;;4961641;28;20296;-55
2022/09/11 01:19:40;;;;;;;4.00;3.60;;;;;;;;;;4972753;28;20291;-54
2022/09/11 01:22:26;;;;;;;3.90;3.60;;;;;;;;;;4972934;28;20225;-54
2022/09/11 01:24:55;;;;;;;4.37;3.97;;;;;;;;;;4966624;28;20206;-56
2022/09/11 01:27:40;;;;;;;5.37;3.97;;;;;;;;;;4979822;28;20248;-58
2022/09/11 01:30:09;;;;;;;4.80;4.07;;;;;;;;;;4982641;28;20279;-53
2022/09/11 01:32:52;;;;;;;7.05;3.97;;;;;;;;;;4978586;28;20768;-55
2022/09/11 01:35:32;;;;;;;4.60;3.95;;;;;;;;;;4976867;28;20655;-55
2022/09/11 01:38:08;;;;;;;5.70;3.88;;;;;;;;;;4981312;28;20390;-55
2022/09/11 01:40:41;;;;;;;5.72;4.25;;;;;;;;;;4962999;28;20197;-55
2022/09/11 01:43:31;;;;;;;4.38;3.80;;;;;;;;;;4983274;28;20646;-57
2022/09/11 01:46:00;;;;;;;4.75;3.70;;;;;;;;;;4952121;28;20251;-53
2022/09/11 01:48:48;;;;;;;6.50;4.40;;;;;;;;;;4964851;28;20233;-55
2022/09/11 01:51:21;;;;;;;5.15;4.40;;;;;;;;;;4961874;28;20299;-58
2022/09/11 01:53:48;;;;;;;6.40;5.53;;;;;;;;;;4983788;28;20232;-56
2022/09/11 01:56:21;;;;;;;6.43;5.68;;;;;;;;;;4967950;28;20228;-57
2022/09/11 01:58:52;;;;;;;5.20;4.70;;;;;;;;;;4977754;28;20286;-55
2022/09/11 02:01:21;;;;;;;8.85;6.90;;;;;;;;;;4985969;28;20288;-55
2022/09/11 02:03:53;;;;;;;6.47;4.68;;;;;;;;;;4971504;28;20862;-55
2022/09/11 02:06:23;;;;;;;4.63;4.20;;;;;;;;;;4971072;28;20267;-56
2022/09/11 02:08:59;;;;;;;5.18;4.68;;;;;;;;;;4989591;28;20288;-56
2022/09/11 02:11:29;;;;;;;4.97;4.18;;;;;;;;;;4963404;28;20593;-58
2022/09/11 02:14:28;;;;;;;7.17;5.67;;;;;;;;;;4962357;28;20209;-57
2022/09/11 02:17:19;;;;;;;7.60;6.60;;;;;;;;;;4981553;28;20312;-57
2022/09/11 02:19:45;;;;;;;5.15;4.65;;;;;;;;;;4966563;28;20755;-57
2022/09/11 02:22:12;;;;;;;6.67;5.23;;;;;;;;;;4984012;28;20281;-55
2022/09/11 02:24:38;;;;;;;8.68;7.40;;;;;;;;;;4983569;28;20700;-56
2022/09/11 02:27:07;;;;;;;5.55;4.70;;;;;;;;;;4987267;28;20307;-56
2022/09/11 02:29:33;;;;;;;6.90;4.90;;;;;;;;;;4964331;28;20293;-57
2022/09/11 02:32:02;;;;;;;8.00;5.72;;;;;;;;;;4962079;28;20299;-57
2022/09/11 02:34:32;;;;;;;7.10;6.03;;;;;;;;;;4979872;28;20233;-58
2022/09/11 02:37:12;;;;;;;5.18;4.60;;;;;;;;;;4982453;28;20224;-57
2022/09/11 02:39:54;;;;;;;8.77;7.22;;;;;;;;;;4964195;28;20206;-55
2022/09/11 02:42:40;;;;;;;9.95;7.50;;;;;;;;;;4964646;28;20197;-57
2022/09/11 02:45:28;;;;;;;7.90;6.27;;;;;;;;;;4984775;28;20281;-56
2022/09/11 02:48:25;;;;;;;11.23;7.30;;;;;;;;;;4988208;28;20299;-54
2022/09/11 02:51:07;;;;;;;5.07;4.53;;;;;;;;;;4957698;28;20209;-55
2022/09/11 02:53:52;;;;;;;10.13;7.72;;;;;;;;;;4969862;28;20307;-58
2022/09/11 02:56:36;;;;;;;11.95;7.88;;;;;;;;;;4981670;28;20304;-56
2022/09/11 02:59:07;;;;;;;8.70;7.30;;;;;;;;;;4985440;28;20287;-58
2022/09/11 03:01:52;;;;;;;10.47;8.10;;;;;;;;;;4960823;28;20280;-55
2022/09/11 03:04:21;;;;;;;9.63;7.60;;;;;;;;;;4984948;28;20791;-58
2022/09/11 03:06:48;;;;;;;10.67;7.97;;;;;;;;;;4987658;28;20256;-57
2022/09/11 03:09:16;;;;;;;9.80;8.20;;;;;;;;;;4987505;28;20281;-56
2022/09/11 03:11:43;;;;;;;9.57;7.57;;;;;;;;;;4983739;28;20224;-57
2022/09/11 03:14:11;;;;;;;9.33;7.27;;;;;;;;;;4984639;28;20285;-58
2022/09/11 03:16:37;;;;;;;11.67;7.87;;;;;;;;;;4982705;28;20767;-58
2022/09/11 03:19:04;;;;;;;9.70;7.33;;;;;;;;;;4992116;28;20227;-56
2022/09/11 03:21:30;;;;;;;10.17;7.33;;;;;;;;;;4964907;28;20284;-58
2022/09/11 03:23:57;;;;;;;9.90;8.20;;;;;;;;;;4987249;28;20193;-56
2022/09/11 03:26:24;;;;;;;9.30;7.77;;;;;;;;;;4985644;28;20219;-56
2022/09/11 03:28:52;;;;;;;10.00;7.93;;;;;;;;;;4985617;28;20194;-57
2022/09/11 03:31:19;;;;;;;9.77;7.87;;;;;;;;;;4986928;28;20230;-56
2022/09/11 03:33:45;;;;;;;11.10;8.30;;;;;;;;;;4973536;28;20699;-54
2022/09/11 03:36:12;;;;;;;10.45;8.02;;;;;;;;;;4992152;28;20312;-55
2022/09/11 03:38:38;;;;;;;9.13;7.77;;;;;;;;;;4988657;28;20194;-55
2022/09/11 03:41:05;;;;;;;6.90;6.00;;;;;;;;;;4992922;28;20480;-56
2022/09/11 03:43:32;;;;;;;11.90;8.77;;;;;;;;;;4989061;28;20203;-58
2022/09/11 03:45:59;;;;;;;12.57;9.93;;;;;;;;;;4991726;28;20196;-55
2022/09/11 03:48:26;;;;;;;12.40;9.43;;;;;;;;;;4992846;28;20208;-58
2022/09/11 03:50:52;;;;;;;11.07;9.00;;;;;;;;;;4988189;28;20284;-58
2022/09/11 03:53:18;;;;;;;13.67;10.07;;;;;;;;;;4993317;28;20221;-58
2022/09/11 03:55:45;;;;;;;11.97;9.27;;;;;;;;;;4991675;28;20201;-56
2022/09/11 03:58:12;;;;;;;15.10;10.77;;;;;;;;;;4988369;28;20220;-58
2022/09/11 04:00:43;;;;;;;12.80;9.57;;;;;;;;;;4987900;28;20236;-55
2022/09/11 04:03:10;;;;;;;14.70;10.67;;;;;;;;;;4984736;28;20228;-57
2022/09/11 04:05:37;;;;;;;13.17;10.50;;;;;;;;;;4988496;28;20201;-56
2022/09/11 04:08:04;;;;;;;13.60;10.33;;;;;;;;;;4988960;28;20219;-55
2022/09/11 04:10:34;;;;;;;15.83;10.87;;;;;;;;;;4985490;28;20381;-56
2022/09/11 04:13:00;;;;;;;12.10;9.80;;;;;;;;;;4984259;28;20627;-57
2022/09/11 04:15:26;;;;;;;13.93;10.83;;;;;;;;;;4986486;28;20283;-54
2022/09/11 04:17:53;;;;;;;7.67;6.53;;;;;;;;;;4985164;28;20808;-57
2022/09/11 04:20:19;;;;;;;15.02;10.90;;;;;;;;;;4987005;28;20201;-58
2022/09/11 04:22:46;;;;;;;13.33;11.10;;;;;;;;;;4985170;28;20281;-58
2022/09/11 04:25:13;;;;;;;8.37;7.07;;;;;;;;;;4970067;28;20284;-56
2022/09/11 04:27:39;;;;;;;10.77;9.03;;;;;;;;;;4984332;28;20652;-55
2022/09/11 04:30:06;;;;;;;13.52;10.38;;;;;;;;;;4984190;28;20300;-55
2022/09/11 04:32:33;;;;;;;13.03;10.37;;;;;;;;;;4980812;28;20226;-56
2022/09/11 04:35:00;;;;;;;9.53;7.50;;;;;;;;;;4986473;28;20197;-56
2022/09/11 04:37:27;;;;;;;13.68;9.70;;;;;;;;;;4988247;28;20311;-56
2022/09/11 04:39:54;;;;;;;15.03;11.10;;;;;;;;;;4984272;28;20225;-55
2022/09/11 04:42:20;;;;;;;12.63;9.95;;;;;;;;;;4987599;28;20669;-55
2022/09/11 04:44:46;;;;;;;12.23;8.55;;;;;;;;;;4990000;28;20280;-54
2022/09/11 04:47:13;;;;;;;8.20;7.30;;;;;;;;;;4984253;28;20304;-56
2022/09/11 04:49:39;;;;;;;13.43;10.05;;;;;;;;;;4992326;28;20283;-56
2022/09/11 04:52:06;;;;;;;17.63;11.63;;;;;;;;;;4987558;28;20669;-55
2022/09/11 04:54:35;;;;;;;16.23;11.67;;;;;;;;;;4981742;28;20284;-54
2022/09/11 04:57:03;;;;;;;18.63;12.27;;;;;;;;;;4983073;28;20696;-57
2022/09/11 04:59:29;;;;;;;9.37;8.07;;;;;;;;;;4985917;28;20297;-57
2022/09/11 05:01:55;;;;;;;16.05;11.63;;;;;;;;;;4989050;28;20208;-57
2022/09/11 05:04:22;;;;;;;19.77;12.65;;;;;;;;;;4986129;28;20220;-57
2022/09/11 05:06:51;;;;;;;17.27;12.47;;;;;;;;;;4987265;28;20227;-54
2022/09/11 05:09:18;;;;;;;17.05;11.75;;;;;;;;;;4986980;28;20207;-55
2022/09/11 05:11:44;;;;;;;18.03;12.27;;;;;;;;;;4991517;28;20812;-55
2022/09/11 05:14:11;;;;;;;17.83;12.90;;;;;;;;;;4990368;28;20285;-55
2022/09/11 05:16:38;;;;;;;19.20;13.60;;;;;;;;;;4986093;28;20316;-54
2022/09/11 05:19:04;;;;;;;19.20;13.07;;;;;;;;;;4984956;28;20669;-56
2022/09/11 05:21:32;;;;;;;18.97;13.37;;;;;;;;;;4982274;28;20205;-54
2022/09/11 05:24:00;;;;;;;21.67;13.50;;;;;;;;;;4983281;28;20280;-53
2022/09/11 05:26:31;;;;;;;16.70;11.73;;;;;;;;;;4986218;28;20305;-54
2022/09/11 05:29:03;;;;;;;16.23;11.70;;;;;;;;;;4989224;28;20284;-54
2022/09/11 05:31:31;;;;;;;18.57;13.17;;;;;;;;;;4991415;28;20643;-54
2022/09/11 05:33:59;;;;;;;20.83;14.53;;;;;;;;;;4985606;28;20200;-54
2022/09/11 05:36:26;;;;;;;24.13;15.83;;;;;;;;;;4986825;28;20708;-56
2022/09/11 05:38:53;;;;;;;20.60;13.03;;;;;;;;;;4987725;28;20356;-53
2022/09/11 05:41:19;;;;;;;24.27;15.13;;;;;;;;;;4987439;28;20203;-57
2022/09/11 05:43:45;;;;;;;19.80;14.17;;;;;;;;;;4989579;28;20241;-57
2022/09/11 05:46:14;;;;;;;18.80;13.50;;;;;;;;;;4982789;28;20793;-57
2022/09/11 05:48:40;;;;;;;20.03;13.67;;;;;;;;;;4985071;28;20284;-53
2022/09/11 05:51:12;;;;;;;22.40;12.60;;;;;;;;;;4983494;28;20280;-54
2022/09/11 05:53:39;;;;;;;15.97;11.63;;;;;;;;;;4987615;28;20308;-54
2022/09/11 05:56:14;;;;;;;21.83;13.70;;;;;;;;;;4985361;28;20201;-55
2022/09/11 05:58:42;;;;;;;18.05;13.13;;;;;;;;;;4970105;28;20284;-55
2022/09/11 06:01:29;;;;;;;18.42;12.60;;;;;;;;;;4973731;28;20236;-55
2022/09/11 06:03:56;;;;;;;17.87;12.07;;;;;;;;;;4986413;28;20197;-55
2022/09/11 06:06:23;;;;;;;15.52;11.25;;;;;;;;;;4986081;28;20259;-54
2022/09/11 06:08:51;;;;;;;16.92;11.88;;;;;;;;;;4986683;28;20295;-57
2022/09/11 06:11:19;;;;;;;18.10;12.10;;;;;;;;;;4985058;28;20640;-55
2022/09/11 06:13:46;;;;;;;18.58;12.77;;;;;;;;;;4985948;28;20681;-55
2022/09/11 06:16:23;;;;;;;18.17;12.50;;;;;;;;;;4986094;28;20308;-55
2022/09/11 06:18:51;;;;;;;17.38;12.15;;;;;;;;;;4985579;28;20212;-55
2022/09/11 06:21:20;;;;;;;16.15;11.88;;;;;;;;;;4967744;28;20275;-57
2022/09/11 06:23:48;;;;;;;19.50;13.53;;;;;;;;;;4982911;28;20201;-57
2022/09/11 06:26:16;;;;;;;18.55;14.00;;;;;;;;;;4965286;28;20655;-54
2022/09/11 06:28:42;;;;;;;13.15;9.65;;;;;;;;;;4987224;28;20281;-54
2022/09/11 06:31:11;;;;;;;13.18;9.38;;;;;;;;;;4988263;28;20285;-54
2022/09/11 06:33:38;;;;;;;12.40;8.95;;;;;;;;;;4986478;28;20229;-56
2022/09/11 06:36:07;;;;;;;17.95;12.80;;;;;;;;;;4987104;28;20291;-57
2022/09/11 06:38:33;;;;;;;15.52;10.77;;;;;;;;;;4984477;28;20732;-55
2022/09/11 06:41:02;;;;;;;19.10;12.70;;;;;;;;;;4987446;28;20287;-55
2022/09/11 06:43:28;;;;;;;17.83;13.15;;;;;;;;;;4987794;28;20289;-55
2022/09/11 06:45:54;;;;;;;17.30;11.57;;;;;;;;;;4986766;28;20244;-56
2022/09/11 06:48:21;;;;;;;18.17;12.75;;;;;;;;;;4988037;28;20256;-54
2022/09/11 06:50:47;;;;;;;20.15;14.00;;;;;;;;;;4987910;28;20280;-56
2022/09/11 06:53:16;;;;;;;18.42;12.95;;;;;;;;;;4987979;28;20308;-54
2022/09/11 06:55:43;;;;;;;16.48;11.50;;;;;;;;;;4981341;28;20304;-52
2022/09/11 06:58:10;;;;;;;12.95;9.80;;;;;;;;;;4984886;28;20740;-55
2022/09/11 07:00:36;;;;;;;13.00;10.18;;;;;;;;;;4989149;28;20216;-54
2022/09/11 07:03:03;;;;;;;15.15;11.05;;;;;;;;;;4986764;28;20277;-56
2022/09/11 07:05:29;;;;;;;12.18;9.43;;;;;;;;;;4987384;28;20255;-55
2022/09/11 07:07:56;;;;;;;14.02;10.32;;;;;;;;;;4991994;28;20307;-55
2022/09/11 07:10:23;;;;;;;14.05;10.85;;;;;;;;;;4991966;28;20256;-52
2022/09/11 07:12:53;;;;;;;16.83;10.60;;;;;;;;;;4991954;28;20304;-51
2022/09/11 07:15:20;;;;;;;13.40;10.45;;;;;;;;;;4991866;28;20283;-52
2022/09/11 07:17:47;;;;;;;11.93;8.20;;;;;;;;;;4990580;28;20267;-55
2022/09/11 07:20:13;;;;;;;11.38;8.95;;;;;;;;;;4996282;28;20281;-55
2022/09/11 07:22:40;;;;;;;12.75;9.50;;;;;;;;;;4990102;28;20622;-55
2022/09/11 07:25:06;;;;;;;10.55;8.60;;;;;;;;;;4985836;28;20291;-57
2022/09/11 07:27:33;;;;;;;11.07;8.80;;;;;;;;;;4990842;28;20684;-55
2022/09/11 07:29:59;;;;;;;14.32;9.35;;;;;;;;;;4989030;28;20244;-56
2022/09/11 07:32:26;;;;;;;15.55;10.65;;;;;;;;;;4993598;28;20292;-56
2022/09/11 07:34:52;;;;;;;13.43;10.02;;;;;;;;;;4988899;28;20233;-53
2022/09/11 07:37:18;;;;;;;15.20;11.13;;;;;;;;;;4991176;28;20333;-53
2022/09/11 07:39:45;;;;;;;13.82;9.90;;;;;;;;;;4987250;28;20292;-58
2022/09/11 07:42:12;;;;;;;14.25;9.95;;;;;;;;;;4988207;28;20197;-55
2022/09/11 07:44:38;;;;;;;14.45;9.77;;;;;;;;;;4989991;28;20292;-53
2022/09/11 07:47:05;;;;;;;11.88;9.43;;;;;;;;;;4991796;28;20308;-53
2022/09/11 07:49:31;;;;;;;15.50;11.00;;;;;;;;;;4985307;28;20296;-56
2022/09/11 07:51:58;;;;;;;16.42;12.00;;;;;;;;;;4990748;28;20203;-52
2022/09/11 07:54:27;;;;;;;17.45;11.85;;;;;;;;;;4990341;28;20637;-55
2022/09/11 07:56:54;;;;;;;14.43;10.75;;;;;;;;;;4990129;28;20312;-52
2022/09/11 07:59:21;;;;;;;16.67;11.48;;;;;;;;;;4991614;28;20298;-54
2022/09/11 08:01:52;;;;;;;18.65;12.35;;;;;;;;;;4990895;28;20284;-54
2022/09/11 08:04:18;;;;;;;18.27;12.63;;;;;;;;;;4990362;28;20634;-55
2022/09/11 08:06:44;;;;;;;15.80;11.90;;;;;;;;;;4990952;28;20667;-53
2022/09/11 08:09:13;;;;;;;14.18;10.65;;;;;;;;;;4990283;28;20280;-55
2022/09/11 08:11:44;;;;;;;12.13;9.25;;;;;;;;;;4988991;28;20225;-54
2022/09/11 08:14:12;;;;;;;13.27;9.70;;;;;;;;;;4986220;28;20307;-54
2022/09/11 08:16:39;;;;;;;13.40;9.93;;;;;;;;;;4988206;28;20299;-54
2022/09/11 08:19:06;;;;;;;11.73;9.20;;;;;;;;;;4971984;28;20675;-55
2022/09/11 08:21:32;;;;;;;17.75;12.18;;;;;;;;;;4990942;28;20287;-56
2022/09/11 08:23:58;;;;;;;12.00;8.57;;;;;;;;;;4986837;28;21790;-55
2022/09/11 08:26:29;;;;;;;12.32;9.50;;;;;;;;;;4992086;28;20648;-53
2022/09/11 08:28:56;;;;;;;14.30;10.43;;;;;;;;;;4993809;28;20741;-56
2022/09/11 08:31:27;;;;;;;14.10;10.40;;;;;;;;;;4984637;28;20652;-55
2022/09/11 08:33:54;;;;;;;18.83;12.23;;;;;;;;;;4989184;28;20670;-54
2022/09/11 08:36:21;;;;;;;15.43;11.30;;;;;;;;;;4989103;28;20779;-54
2022/09/11 08:38:48;;;;;;;14.60;10.55;;;;;;;;;;4984870;28;20235;-55
2022/09/11 08:41:41;;;;;;;12.98;9.70;;;;;;;;;;4989798;28;20228;-56
2022/09/11 08:44:26;;;;;;;13.88;10.68;;;;;;;;;;4976803;28;20293;-54
2022/09/11 08:47:00;;;;;;;10.43;8.60;;;;;;;;;;4972153;28;20229;-54
2022/09/11 08:49:34;;;;;;;12.90;9.43;;;;;;;;;;4990593;28;20288;-53
2022/09/11 08:52:02;;;;;;;12.95;9.88;;;;;;;;;;4988644;28;20691;-55
2022/09/11 08:54:32;;;;;;;13.45;9.60;;;;;;;;;;4973246;28;20308;-55
2022/09/11 08:57:05;;;;;;;15.20;10.07;;;;;;;;;;4989082;28;20327;-57
2022/09/11 09:00:00;;;;;;;10.65;8.57;;;;;;;;;;4985039;28;20215;-55
2022/09/11 09:03:01;;;;;;;12.57;9.43;;;;;;;;;;4990983;28;20650;-55
2022/09/11 09:05:53;;;;;;;12.50;9.15;;;;;;;;;;4986357;28;20659;-56
2022/09/11 09:08:23;;;;;;;15.15;10.20;;;;;;;;;;4968647;28;20516;-57
2022/09/11 09:11:08;;;;;;;11.68;8.77;;;;;;;;;;4970384;28;20284;-55
2022/09/11 09:13:47;;;;;;;11.13;8.40;;;;;;;;;;4989920;28;20760;-54
2022/09/11 09:16:27;;;;;;;10.15;7.85;;;;;;;;;;4986842;28;20303;-57
2022/09/11 09:19:05;;;;;;;11.18;8.00;;;;;;;;;;4959992;28;20697;-54
2022/09/11 09:22:00;;;;;;;11.90;8.25;;;;;;;;;;4987433;28;20287;-54
2022/09/11 09:24:29;;;;;;;9.23;7.78;;;;;;;;;;4973599;28;20294;-55
2022/09/11 09:26:56;;;;;;;10.57;7.82;;;;;;;;;;4971100;28;20404;-55
2022/09/11 09:29:26;;;;;;;9.63;7.82;;;;;;;;;;4988761;28;20284;-57
2022/09/11 09:31:57;;;;;;;10.68;7.13;;;;;;;;;;4989158;28;20288;-54
2022/09/11 09:34:26;;;;;;;9.85;7.35;;;;;;;;;;4972986;28;20312;-54
2022/09/11 09:37:14;;;;;;;9.85;7.72;;;;;;;;;;4988557;28;20225;-57
2022/09/11 09:39:40;;;;;;;9.70;7.25;;;;;;;;;;4988962;28;20197;-57
2022/09/11 09:42:21;;;;;;;9.48;7.05;;;;;;;;;;4984533;28;20209;-56
2022/09/11 09:45:00;;;;;;;10.50;6.75;;;;;;;;;;4964430;28;20292;-55
2022/09/11 09:47:28;;;;;;;9.50;6.55;;;;;;;;;;4988433;28;20251;-56
2022/09/11 09:49:57;;;;;;;8.27;6.20;;;;;;;;;;4987706;28;20896;-57
2022/09/11 09:52:25;;;;;;;7.57;5.85;;;;;;;;;;4967925;28;20700;-55
2022/09/11 09:55:00;;;;;;;7.80;6.18;;;;;;;;;;4973495;28;20378;-54
2022/09/11 09:57:38;;;;;;;7.88;5.80;;;;;;;;;;4988973;28;20306;-55
2022/09/11 10:00:06;;;;;;;6.93;5.55;;;;;;;;;;4991453;28;20231;-57
2022/09/11 10:02:41;;;;;;;6.55;5.65;;;;;;;;;;4988658;28;20264;-54
2022/09/11 10:05:28;;;;;;;6.72;5.43;;;;;;;;;;4990610;28;20704;-55
2022/09/11 10:08:04;;;;;;;6.57;5.10;;;;;;;;;;4989994;28;20248;-55
2022/09/11 10:10:36;;;;;;;8.50;5.20;;;;;;;;;;4970108;28;20695;-55
2022/09/11 10:13:07;;;;;;;7.53;5.65;;;;;;;;;;4982418;28;20323;-55
2022/09/11 10:15:47;;;;;;;7.57;5.70;;;;;;;;;;4964198;28;20672;-57
2022/09/11 10:18:29;;;;;;;7.20;5.65;;;;;;;;;;4971875;28;20754;-54
2022/09/11 10:21:10;;;;;;;8.27;5.32;;;;;;;;;;4986313;28;20300;-53
2022/09/11 10:23:56;;;;;;;5.78;5.10;;;;;;;;;;4985234;28;20292;-54
2022/09/11 10:26:24;;;;;;;8.10;5.10;;;;;;;;;;4987531;28;20316;-52
2022/09/11 10:28:58;;;;;;;6.72;5.40;;;;;;;;;;4990050;28;20288;-54
2022/09/11 10:31:25;;;;;;;7.57;4.97;;;;;;;;;;4971188;28;20283;-53
2022/09/11 10:33:56;;;;;;;6.05;5.10;;;;;;;;;;4989273;28;20236;-54
2022/09/11 10:36:25;;;;;;;5.25;4.50;;;;;;;;;;4971711;28;20311;-54
2022/09/11 10:38:51;;;;;;;6.28;5.22;;;;;;;;;;4987740;28;20264;-52
2022/09/11 10:41:20;;;;;;;5.95;4.65;;;;;;;;;;4982844;28;20287;-52
2022/09/11 10:43:52;;;;;;;5.63;4.57;;;;;;;;;;4964777;28;20200;-55
2022/09/11 10:46:24;;;;;;;5.30;4.75;;;;;;;;;;4990125;28;20245;-54
2022/09/11 10:48:54;;;;;;;6.25;5.07;;;;;;;;;;4985196;28;20280;-54
2022/09/11 10:51:22;;;;;;;8.25;5.25;;;;;;;;;;4988550;28;20283;-54
2022/09/11 10:54:16;;;;;;;5.88;4.72;;;;;;;;;;4988946;28;20263;-51
2022/09/11 10:57:12;;;;;;;7.15;5.03;;;;;;;;;;4971221;28;20316;-53
2022/09/11 11:00:04;;;;;;;5.47;4.80;;;;;;;;;;4988698;28;20737;-53
2022/09/11 11:02:46;;;;;;;6.18;4.53;;;;;;;;;;4969166;28;20197;-51
2022/09/11 11:05:37;;;;;;;8.07;4.72;;;;;;;;;;4985650;28;20272;-51
2022/09/11 11:08:03;;;;;;;7.88;5.63;;;;;;;;;;4983811;28;20295;-51
2022/09/11 11:10:50;;;;;;;6.30;5.25;;;;;;;;;;4989176;28;20283;-54
2022/09/11 11:13:48;;;;;;;7.95;5.47;;;;;;;;;;4972175;28;20335;-54
2022/09/11 11:16:33;;;;;;;8.50;6.78;;;;;;;;;;4948658;28;20339;-51
2022/09/11 11:19:11;;;;;;;6.45;5.45;;;;;;;;;;4957637;28;20206;-55
2022/09/11 11:21:57;;;;;;;8.07;5.60;;;;;;;;;;4978242;28;20288;-53
2022/09/11 11:24:36;;;;;;;8.73;5.55;;;;;;;;;;4984418;28;20349;-55
2022/09/11 11:27:36;;;;;;;6.60;5.30;;;;;;;;;;4962998;28;20315;-53
2022/09/11 11:30:11;;;;;;;5.97;5.10;;;;;;;;;;4981486;28;20285;-53
2022/09/11 11:32:57;;;;;;;6.93;5.60;;;;;;;;;;4979114;28;20204;-53
2022/09/11 11:35:30;;;;;;;7.63;5.60;;;;;;;;;;4975951;28;20293;-53
2022/09/11 11:38:19;;;;;;;6.97;5.78;;;;;;;;;;4975010;28;20304;-50
2022/09/11 11:40:48;;;;;;;6.80;5.35;;;;;;;;;;4961312;28;20245;-57
2022/09/11 11:43:20;;;;;;;6.70;5.47;;;;;;;;;;4965462;28;20600;-50
2022/09/11 11:45:56;;;;;;;6.45;5.07;;;;;;;;;;4954989;28;20285;-52
2022/09/11 11:48:31;;;;;;;6.50;5.32;;;;;;;;;;4967028;28;20197;-53
2022/09/11 11:51:20;;;;;;;7.43;5.82;;;;;;;;;;4960716;28;20768;-53
2022/09/11 11:53:55;;;;;;;6.72;5.22;;;;;;;;;;4981788;28;20221;-50
2022/09/11 11:56:32;;;;;;;6.22;5.05;;;;;;;;;;4986245;28;20305;-50
2022/09/11 11:59:11;;;;;;;6.47;5.07;;;;;;;;;;4968334;28;20205;-50
2022/09/11 12:01:57;;;;;;;6.70;5.70;;;;;;;;;;4961934;28;20211;-50
2022/09/11 12:04:45;;;;;;;7.22;5.65;;;;;;;;;;4982115;28;20653;-51
2022/09/11 12:07:32;;;;;;;7.68;5.85;;;;;;;;;;4961087;28;20307;-51
2022/09/11 12:10:00;;;;;;;6.47;5.13;;;;;;;;;;4978067;28;20283;-50
2022/09/11 12:12:30;;;;;;;5.90;5.30;;;;;;;;;;4966521;28;20291;-52
2022/09/11 12:15:08;;;;;;;6.40;5.22;;;;;;;;;;4973755;28;20775;-50
2022/09/11 12:17:39;;;;;;;7.13;5.53;;;;;;;;;;4956687;28;20320;-50
2022/09/11 12:20:08;;;;;;;8.35;5.78;;;;;;;;;;4974349;28;20280;-51
2022/09/11 12:22:37;;;;;;;6.88;5.45;;;;;;;;;;4985577;28;20283;-53
2022/09/11 12:25:34;;;;;;;7.40;6.07;;;;;;;;;;4972817;28;20280;-52
2022/09/11 12:28:24;;;;;;;9.38;6.25;;;;;;;;;;4988831;28;20232;-53
2022/09/11 12:31:05;;;;;;;7.57;6.00;;;;;;;;;;4982769;28;20235;-50
2022/09/11 12:33:46;;;;;;;9.50;6.22;;;;;;;;;;4961988;28;20233;-53
2022/09/11 12:36:18;;;;;;;7.97;6.32;;;;;;;;;;4977840;28;20291;-53
2022/09/11 12:38:47;;;;;;;6.38;5.40;;;;;;;;;;4965991;28;20243;-53
2022/09/11 12:41:16;;;;;;;7.63;6.07;;;;;;;;;;4980707;28;20681;-51
2022/09/11 12:43:42;;;;;;;9.48;5.82;;;;;;;;;;4970573;28;20288;-53
2022/09/11 12:46:19;;;;;;;8.32;5.85;;;;;;;;;;4980686;28;20692;-49
2022/09/11 12:49:07;;;;;;;6.72;5.15;;;;;;;;;;4982255;28;20283;-50
2022/09/11 12:51:53;;;;;;;7.18;5.65;;;;;;;;;;4980007;28;20646;-50
2022/09/11 12:54:37;;;;;;;7.85;6.03;;;;;;;;;;4991600;28;20243;-53
2022/09/11 12:57:03;;;;;;;8.20;6.30;;;;;;;;;;4970479;28;20224;-52
2022/09/11 12:59:32;;;;;;;9.55;6.82;;;;;;;;;;4965215;28;20287;-51
2022/09/11 13:01:59;;;;;;;8.77;6.95;;;;;;;;;;4983183;28;20207;-55
2022/09/11 13:04:29;;;;;;;9.18;7.10;;;;;;;;;;4952521;28;20255;-55
2022/09/11 13:07:03;;;;;;;8.95;6.50;;;;;;;;;;4962642;28;20324;-56
2022/09/11 13:09:45;;;;;;;9.38;7.03;;;;;;;;;;4982934;28;20251;-54
2022/09/11 13:12:18;;;;;;;9.55;7.25;;;;;;;;;;4981010;28;20292;-55
2022/09/11 13:14:49;;;;;;;9.98;6.70;;;;;;;;;;4982586;28;20541;-54
2022/09/11 13:17:24;;;;;;;9.32;6.65;;;;;;;;;;4978302;28;20245;-53
2022/09/11 13:19:53;;;;;;;8.88;6.57;;;;;;;;;;4976116;28;20211;-53
2022/09/11 13:22:23;;;;;;;9.90;6.55;;;;;;;;;;4981326;28;20288;-50
2022/09/11 13:24:50;;;;;;;8.02;5.90;;;;;;;;;;4977207;28;20289;-52
2022/09/11 13:27:25;;;;;;;9.88;6.55;;;;;;;;;;4980645;28;20308;-50
2022/09/11 13:29:53;;;;;;;8.48;6.63;;;;;;;;;;4988385;28;20287;-53
2022/09/11 13:32:20;;;;;;;9.10;6.63;;;;;;;;;;4981865;28;20198;-55
2022/09/11 13:34:49;;;;;;;9.48;7.00;;;;;;;;;;4981108;28;20695;-53
2022/09/11 13:37:39;;;;;;;8.95;6.28;;;;;;;;;;4979769;28;20221;-54
2022/09/11 13:40:16;;;;;;;9.75;6.70;;;;;;;;;;4960479;28;20597;-56
2022/09/11 13:42:43;;;;;;;9.95;6.03;;;;;;;;;;4969676;28;20208;-53
2022/09/11 13:45:16;;;;;;;8.93;6.70;;;;;;;;;;4976883;28;20202;-53
2022/09/11 13:47:43;;;;;;;8.82;6.13;;;;;;;;;;4964387;28;20312;-53
2022/09/11 13:50:11;;;;;;;9.38;5.85;;;;;;;;;;4989168;28;20369;-53
2022/09/11 13:52:40;;;;;;;9.23;6.15;;;;;;;;;;4967104;28;20292;-54
2022/09/11 13:55:17;;;;;;;9.88;6.07;;;;;;;;;;4963381;28;20776;-54
2022/09/11 13:57:50;;;;;;;7.78;5.85;;;;;;;;;;4973524;28;20312;-52
2022/09/11 14:00:41;;;;;;;10.43;6.32;;;;;;;;;;4981679;28;20207;-54
2022/09/11 14:03:16;;;;;;;7.65;6.32;;;;;;;;;;4971589;28;20293;-54
2022/09/11 14:05:52;;;;;;;10.52;5.70;;;;;;;;;;4959108;28;20219;-50
2022/09/11 14:08:31;;;;;;;8.18;6.13;;;;;;;;;;4966743;28;20371;-50
2022/09/11 14:11:02;;;;;;;7.50;5.82;;;;;;;;;;4982891;28;20201;-50
2022/09/11 14:13:34;;;;;;;6.75;5.40;;;;;;;;;;4967381;28;20210;-53
2022/09/11 14:16:13;;;;;;;7.03;5.55;;;;;;;;;;4975019;28;20654;-50
2022/09/11 14:18:51;;;;;;;8.45;5.43;;;;;;;;;;4979899;28;20291;-54
2022/09/11 14:21:21;;;;;;;7.00;5.10;;;;;;;;;;4979845;28;20225;-53
2022/09/11 14:23:53;;;;;;;9.65;5.50;;;;;;;;;;4975459;28;20203;-55
2022/09/11 14:26:21;;;;;;;7.90;5.20;;;;;;;;;;4982702;28;20217;-50
2022/09/11 14:28:50;;;;;;;7.40;5.30;;;;;;;;;;4985811;28;20751;-50
2022/09/11 14:31:37;;;;;;;7.50;5.68;;;;;;;;;;4974025;28;20205;-52
2022/09/11 14:34:11;;;;;;;8.32;5.28;;;;;;;;;;4983041;28;20743;-50
2022/09/11 14:36:40;;;;;;;7.35;5.75;;;;;;;;;;4982768;28;20311;-53
2022/09/11 14:39:12;;;;;;;6.05;5.30;;;;;;;;;;4971714;28;20232;-54
2022/09/11 14:41:41;;;;;;;8.13;6.00;;;;;;;;;;4965676;28;20656;-53
2022/09/11 14:44:11;;;;;;;6.20;5.07;;;;;;;;;;4984472;28;20348;-50
2022/09/11 14:46:38;;;;;;;7.55;5.30;;;;;;;;;;4962090;28;20276;-52
2022/09/11 14:49:04;;;;;;;6.78;5.32;;;;;;;;;;4981755;28;20220;-55
2022/09/11 14:51:31;;;;;;;8.38;5.30;;;;;;;;;;4983631;28;20205;-51
2022/09/11 14:53:57;;;;;;;7.90;5.30;;;;;;;;;;4982831;28;20284;-55
2022/09/11 14:56:24;;;;;;;7.47;5.45;;;;;;;;;;4981815;28;20673;-50
2022/09/11 14:58:52;;;;;;;5.97;4.78;;;;;;;;;;4978662;28;20243;-52
2022/09/11 15:01:18;;;;;;;7.40;4.90;;;;;;;;;;4982423;28;20634;-51
2022/09/11 15:03:44;;;;;;;6.65;5.10;;;;;;;;;;4982056;28;20594;-51